Time;durP1;ratioP1;P1;durP2;ratioP2;P2;SDS_P1;SDS_P2;PMS_P1;PMS_P2;Temp;Humidity;BMP_temperature;BMP_pressure;BME280_temperature;BME280_humidity;BME280_pressure;Samples;Min_cycle;Max_cycle;Signal;HPM_P1;HPM_P2
2022/01/19 00:03:42;;;;;;;28.23;25.65;;;;;;;;;;12664752;28;20044;-76
2022/01/19 00:09:43;;;;;;;;;;;;;;;;;;12665073;28;20055;-76
2022/01/19 00:15:46;;;;;;;30.58;27.65;;;;;;;;;;12665401;28;20466;-75
2022/01/19 00:22:05;;;;;;;30.15;27.20;;;;;;;;;;12688383;27;20474;-76
2022/01/19 00:28:07;;;;;;;28.95;26.15;;;;;;;;;;12652720;28;20411;-76
2022/01/19 00:34:09;;;;;;;26.30;23.63;;;;;;;;;;12652623;28;20258;-75
2022/01/19 00:40:14;;;;;;;26.95;24.25;;;;;;;;;;12652154;28;20369;-75
2022/01/19 00:46:18;;;;;;;24.38;22.13;;;;;;;;;;12649578;28;20032;-75
2022/01/19 00:52:20;;;;;;;;;;;;;;;;;;12618538;28;20032;-75
2022/01/19 00:58:22;;;;;;;25.48;23.08;;;;;;;;;;12617857;28;20475;-75
2022/01/19 01:04:24;;;;;;;28.13;25.52;;;;;;;;;;12617802;28;20042;-77
2022/01/19 01:10:26;;;;;;;25.85;23.30;;;;;;;;;;12617207;28;20039;-76
2022/01/19 01:16:36;;;;;;;27.10;24.50;;;;;;;;;;12616657;28;20052;-76
2022/01/19 01:22:41;;;;;;;27.08;24.50;;;;;;;;;;12617090;28;20035;-75
2022/01/19 01:28:44;;;;;;;28.33;25.38;;;;;;;;;;12609377;28;20033;-76
2022/01/19 01:34:46;;;;;;;26.87;24.27;;;;;;;;;;12616217;28;20478;-76
2022/01/19 01:40:48;;;;;;;27.60;25.00;;;;;;;;;;12616136;28;20040;-76
2022/01/19 01:46:56;;;;;;;27.70;25.00;;;;;;;;;;12616008;28;20465;-76
2022/01/19 01:59:20;;;;;;;28.38;25.75;;;;;;;;;;12631973;28;20048;-76
2022/01/19 02:05:32;;;;;;;28.60;25.80;;;;;;;;;;12615796;28;20036;-76
2022/01/19 02:24:20;;;;;;;23.92;21.73;;;;;;;;;;12631079;28;20032;-77
2022/01/19 02:40:08;;;;;;;21.23;19.17;;;;;;;;;;12629898;28;20043;-76
2022/01/19 02:43:21;;;;;;;23.33;21.17;;;;;;;;;;12629116;28;20036;-77
2022/01/19 02:49:26;;;;;;;25.40;22.92;;;;;;;;;;12614253;28;20393;-77
2022/01/19 02:55:29;;;;;;;27.13;24.60;;;;;;;;;;12612719;28;20039;-77
2022/01/19 03:14:12;;;;;;;24.58;22.17;;;;;;;;;;12628517;28;20047;-77
2022/01/19 03:20:15;;;;;;;25.20;23.00;;;;;;;;;;12628528;28;20546;-77
2022/01/19 03:26:16;;;;;;;25.20;22.90;;;;;;;;;;12611129;28;20063;-77
2022/01/19 03:32:45;;;;;;;23.35;21.13;;;;;;;;;;12642203;28;20063;-77
2022/01/19 03:38:48;;;;;;;25.92;23.40;;;;;;;;;;12610474;28;20523;-77
2022/01/19 03:44:49;;;;;;;24.00;21.73;;;;;;;;;;12610543;28;20036;-77
2022/01/19 04:00:04;;;;;;;22.33;20.23;;;;;;;;;;12588195;28;20497;-77
2022/01/19 04:06:17;;;;;;;26.90;24.35;;;;;;;;;;12569579;28;20024;-76
2022/01/19 04:18:25;;;;;;;24.33;22.10;;;;;;;;;;12587565;28;20497;-76
2022/01/19 04:24:27;;;;;;;22.80;20.60;;;;;;;;;;12569382;28;20063;-76
2022/01/19 04:30:29;;;;;;;24.53;22.23;;;;;;;;;;12586138;28;20262;-75
2022/01/19 05:02:13;;;;;;;26.15;23.80;;;;;;;;;;12585701;28;20049;-76
2022/01/19 05:14:40;;;;;;;26.02;23.63;;;;;;;;;;12583959;28;20036;-77
2022/01/19 05:20:42;;;;;;;24.90;22.52;;;;;;;;;;12567461;28;20044;-75
2022/01/19 05:26:46;;;;;;;23.95;21.73;;;;;;;;;;12584094;28;20039;-75
2022/01/19 05:32:56;;;;;;;22.55;20.42;;;;;;;;;;12568017;28;20068;-75
2022/01/19 05:39:14;;;;;;;22.40;20.40;;;;;;;;;;12735952;27;1343048;-75
2022/01/19 05:45:19;;;;;;;22.10;19.35;;;;;;;;;;12736931;27;20035;-75
2022/01/19 05:51:21;;;;;;;22.30;19.97;;;;;;;;;;12737062;27;20042;-75
2022/01/19 05:57:24;;;;;;;18.30;16.25;;;;;;;;;;12719579;28;20043;-75
2022/01/19 06:03:27;;;;;;;;;;;;;;;;;;12720105;27;20019;-75
2022/01/19 06:10:01;;;;;;;16.33;14.23;;;;;;;;;;12728336;27;19915;-75
2022/01/19 06:16:07;;;;;;;17.85;15.98;;;;;;;;;;12720028;27;20039;-75
2022/01/19 06:22:09;;;;;;;;;;;;;;;;;;12718709;28;20031;-76
2022/01/19 06:28:11;;;;;;;19.52;16.23;;;;;;;;;;12717724;27;19908;-76
2022/01/19 06:34:13;;;;;;;19.23;17.23;;;;;;;;;;12715346;27;20495;-76
2022/01/19 06:40:40;;;;;;;22.10;19.77;;;;;;;;;;12703154;27;20507;-76
2022/01/19 06:46:43;;;;;;;21.55;17.63;;;;;;;;;;12721852;27;20508;-76
2022/01/19 06:52:45;;;;;;;21.85;19.65;;;;;;;;;;12669540;28;20117;-76
2022/01/19 06:58:47;;;;;;;17.37;15.53;;;;;;;;;;12654563;28;20115;-77
2022/01/19 07:06:16;;;;;;;18.13;16.23;;;;;;;;;;12615878;27;20393;-75
2022/01/19 07:16:26;;;;;;;17.25;15.48;;;;;;;;;;12607493;27;20831;-77
2022/01/19 07:22:28;;;;;;;17.90;16.08;;;;;;;;;;12540211;28;20249;-75
2022/01/19 07:28:36;;;;;;;26.48;23.85;;;;;;;;;;12558678;28;20044;-76
2022/01/19 07:34:39;;;;;;;23.63;21.42;;;;;;;;;;12553933;28;20040;-76
2022/01/19 07:45:24;;;;;;;26.00;23.38;;;;;;;;;;12499219;28;20412;-76
2022/01/19 07:51:45;;;;;;;29.42;26.52;;;;;;;;;;12516869;28;20095;-76
2022/01/19 07:58:05;;;;;;;28.40;25.67;;;;;;;;;;12514291;28;20702;-76
2022/01/19 08:04:20;;;;;;;32.20;29.00;;;;;;;;;;12498654;28;20056;-75
2022/01/19 08:10:23;;;;;;;28.30;25.63;;;;;;;;;;12519734;28;20045;-76
2022/01/19 08:16:25;;;;;;;;;;;;;;;;;;12511064;28;20220;-76
2022/01/19 08:22:27;;;;;;;28.77;25.98;;;;;;;;;;12507965;28;19925;-76
2022/01/19 08:29:09;;;;;;;27.60;24.92;;;;;;;;;;12514193;28;20030;-77
2022/01/19 08:35:11;;;;;;;23.42;21.33;;;;;;;;;;12493515;28;20029;-76
2022/01/19 08:41:32;;;;;;;22.85;20.83;;;;;;;;;;12512945;28;20426;-77
2022/01/19 08:47:46;;;;;;;23.40;21.10;;;;;;;;;;12579982;27;20755;-75
2022/01/19 08:54:02;;;;;;;23.77;21.58;;;;;;;;;;12580253;28;20464;-76
2022/01/19 09:00:11;;;;;;;20.65;18.73;;;;;;;;;;12566885;28;20023;-76
2022/01/19 09:06:32;;;;;;;18.83;17.08;;;;;;;;;;12572615;28;20060;-77
2022/01/19 09:18:29;;;;;;;22.48;17.33;;;;;;;;;;12659690;27;20129;-76
2022/01/19 09:24:31;;;;;;;15.52;14.07;;;;;;;;;;12590404;28;20091;-75
2022/01/19 09:30:33;;;;;;;17.88;14.40;;;;;;;;;;12597652;28;20028;-76
2022/01/19 09:36:55;;;;;;;18.55;16.67;;;;;;;;;;12613623;28;20050;-76
2022/01/19 09:42:56;;;;;;;17.15;14.15;;;;;;;;;;12624963;28;20048;-76
2022/01/19 09:48:59;;;;;;;11.80;10.63;;;;;;;;;;12601329;28;20024;-77
2022/01/19 09:55:00;;;;;;;12.43;11.23;;;;;;;;;;12573471;28;20393;-75
2022/01/19 22:18:00;;;;;;;47.13;30.25;;;;;;;;;;12705213;27;20499;-75
2022/01/19 22:24:02;;;;;;;46.45;29.45;;;;;;;;;;12669863;28;20035;-75
2022/01/19 22:30:09;;;;;;;48.20;33.00;;;;;;;;;;12669367;28;20027;-77
2022/01/19 22:36:11;;;;;;;46.90;28.38;;;;;;;;;;12669010;28;20040;-76
2022/01/19 22:42:14;;;;;;;44.95;28.48;;;;;;;;;;12668892;28;20043;-76
2022/01/19 22:48:16;;;;;;;48.10;31.63;;;;;;;;;;12668924;28;20036;-76
2022/01/19 22:54:18;;;;;;;60.00;37.88;;;;;;;;;;12669960;28;20043;-76
2022/01/19 23:00:23;;;;;;;57.03;34.15;;;;;;;;;;12668413;28;20051;-77
2022/01/19 23:06:26;;;;;;;57.47;33.97;;;;;;;;;;12668102;28;20042;-76
2022/01/19 23:12:31;;;;;;;;;;;;;;;;;;12667669;28;20051;-76
2022/01/19 23:18:34;;;;;;;41.53;26.17;;;;;;;;;;12683878;28;19908;-76
2022/01/19 23:24:36;;;;;;;54.45;33.90;;;;;;;;;;12660185;28;20028;-76
2022/01/19 23:30:39;;;;;;;70.30;38.63;;;;;;;;;;12632915;28;20032;-76
2022/01/19 23:36:51;;;;;;;52.33;31.50;;;;;;;;;;12634520;28;20058;-76
2022/01/19 23:49:15;;;;;;;52.58;33.72;;;;;;;;;;12632342;28;20028;-75
2022/01/19 23:55:18;;;;;;;57.13;34.47;;;;;;;;;;12632008;28;20058;-75
